Time;durP1;ratioP1;P1;durP2;ratioP2;P2;SDS_P1;SDS_P2;PMS_P1;PMS_P2;Temp;Humidity;BMP_temperature;BMP_pressure;BME280_temperature;BME280_humidity;BME280_pressure;Samples;Min_cycle;Max_cycle;Signal;HPM_P1;HPM_P2
2022/02/28 00:01:18;;;;;;;13.10;7.70;;;1.30;60.90;;;1.79;51.59;98926.22;6237243;23;20054;-37
2022/02/28 00:03:46;;;;;;;11.40;7.17;;;1.30;60.90;;;1.75;51.25;98922.06;6247269;23;20015;-36
2022/02/28 00:06:14;;;;;;;12.67;7.80;;;1.20;60.50;;;1.70;51.54;98917.00;6236725;23;20022;-36
2022/02/28 00:08:42;;;;;;;14.80;8.67;;;1.20;61.30;;;1.70;51.29;98924.03;6235285;23;20019;-36
2022/02/28 00:11:10;;;;;;;14.03;7.37;;;1.20;61.00;;;1.69;51.10;98924.97;6236359;23;20012;-36
2022/02/28 00:13:38;;;;;;;12.97;7.07;;;1.20;61.40;;;1.69;51.24;98924.97;6236822;23;20018;-37
2022/02/28 00:16:06;;;;;;;13.30;7.93;;;1.10;61.10;;;1.70;51.76;98922.25;6235605;23;20023;-37
2022/02/28 00:18:34;;;;;;;13.50;8.23;;;1.20;60.90;;;1.71;51.13;98921.34;6236495;23;20027;-36
2022/02/28 00:21:03;;;;;;;13.03;7.90;;;1.20;60.50;;;1.67;50.98;98921.59;6236018;23;20024;-36
2022/02/28 00:23:32;;;;;;;12.93;7.73;;;1.20;60.40;;;1.63;51.41;98922.63;6234051;23;20191;-37
2022/02/28 00:26:01;;;;;;;14.57;9.10;;;1.20;61.00;;;1.63;51.17;98923.50;6236747;23;20016;-36
2022/02/28 00:28:29;;;;;;;13.67;8.47;;;1.10;60.70;;;1.64;51.67;98913.84;6235436;23;20018;-36
2022/02/28 00:30:57;;;;;;;13.13;7.83;;;1.20;61.60;;;1.64;50.71;98909.44;6210818;23;20209;-36
2022/02/28 00:33:25;;;;;;;14.47;8.67;;;1.20;60.80;;;1.66;50.95;98914.63;6237747;23;20020;-36
2022/02/28 00:35:53;;;;;;;17.90;8.97;;;1.20;60.40;;;1.67;50.73;98918.97;6235960;23;20020;-36
2022/02/28 00:38:22;;;;;;;10.33;7.30;;;1.20;60.20;;;1.66;51.68;98904.13;6235431;23;20026;-37
2022/02/28 00:40:51;;;;;;;15.30;7.57;;;1.20;60.40;;;1.65;51.40;98911.16;6237275;23;20046;-37
2022/02/28 00:43:19;;;;;;;10.30;7.17;;;1.10;60.40;;;1.63;50.97;98906.88;6236152;23;20024;-36
2022/02/28 00:45:48;;;;;;;12.20;6.67;;;1.20;60.30;;;1.62;51.35;98908.66;6233795;23;20336;-37
2022/02/28 00:48:16;;;;;;;11.40;6.50;;;1.20;59.90;;;1.64;51.30;98909.44;6235274;23;20012;-36
2022/02/28 00:50:44;;;;;;;12.60;7.33;;;1.20;59.90;;;1.62;50.97;98908.66;6235630;23;20071;-36
2022/02/28 00:53:12;;;;;;;8.73;5.93;;;1.20;60.00;;;1.61;51.41;98906.97;6236491;23;20067;-36
2022/02/28 00:55:41;;;;;;;14.13;7.57;;;1.20;60.20;;;1.56;51.47;98906.34;6236247;23;20019;-36
2022/02/28 00:58:09;;;;;;;9.90;6.73;;;1.00;60.40;;;1.52;50.98;98907.41;6235084;23;20237;-36
2022/02/28 01:00:38;;;;;;;14.77;6.80;;;1.00;60.60;;;1.52;51.18;98907.41;6236477;23;20330;-36
2022/02/28 01:03:06;;;;;;;11.37;6.27;;;1.00;60.50;;;1.49;51.08;98907.53;6210615;23;20527;-36
2022/02/28 01:05:35;;;;;;;13.40;7.07;;;1.00;60.80;;;1.47;51.10;98904.16;6235003;23;20024;-37
2022/02/28 01:08:03;;;;;;;10.03;6.53;;;1.00;60.80;;;1.47;51.49;98912.84;6209734;23;20028;-36
2022/02/28 01:10:32;;;;;;;9.40;6.60;;;1.00;60.30;;;1.45;51.22;98906.84;6236165;23;20016;-36
2022/02/28 01:13:00;;;;;;;9.30;6.27;;;1.00;60.60;;;1.41;51.65;98915.78;6236869;23;20103;-37
2022/02/28 01:15:29;;;;;;;10.07;6.27;;;0.90;60.70;;;1.37;51.63;98915.06;6234616;23;20210;-36
2022/02/28 01:17:57;;;;;;;13.67;6.50;;;0.90;60.80;;;1.37;51.84;98916.84;6235012;23;20031;-36
2022/02/28 01:20:25;;;;;;;8.73;5.77;;;0.90;61.10;;;1.34;51.37;98914.41;6235215;23;20024;-37
2022/02/28 01:22:53;;;;;;;11.90;6.67;;;0.90;60.90;;;1.32;52.06;98911.84;6210354;23;20024;-37
2022/02/28 01:25:21;;;;;;;9.40;6.03;;;0.80;61.00;;;1.32;51.26;98908.38;6209548;23;20008;-36
2022/02/28 01:27:51;;;;;;;9.47;6.03;;;0.90;61.10;;;1.32;51.10;98900.50;6235675;23;20027;-36
2022/02/28 01:30:18;;;;;;;9.17;6.77;;;0.90;60.60;;;1.32;51.60;98898.72;6209784;23;20350;-36
2022/02/28 01:32:46;;;;;;;12.20;6.90;;;0.90;61.00;;;1.33;51.43;98902.19;6235408;23;20038;-37
2022/02/28 01:35:14;;;;;;;12.17;6.70;;;0.90;60.60;;;1.32;51.57;98893.47;6209184;23;20210;-37
2022/02/28 01:37:43;;;;;;;11.30;6.73;;;0.90;60.70;;;1.31;51.34;98891.75;6235438;23;20298;-37
2022/02/28 01:40:14;;;;;;;14.00;7.90;;;0.80;60.70;;;1.27;51.40;98887.56;6235877;23;20024;-37
2022/02/28 01:42:43;;;;;;;13.73;7.77;;;0.80;60.90;;;1.24;51.54;98887.75;6235182;23;20030;-36
2022/02/28 01:45:17;;;;;;;15.23;8.97;;;0.80;61.00;;;1.20;51.70;98885.31;6236462;23;20217;-37
2022/02/28 01:47:45;;;;;;;13.27;7.80;;;0.70;60.80;;;1.17;51.88;98886.31;6244911;23;20030;-37
2022/02/28 01:50:13;;;;;;;14.00;8.00;;;0.70;61.40;;;1.18;51.63;98882.75;6209371;23;20218;-37
2022/02/28 01:52:41;;;;;;;13.40;8.47;;;0.70;61.50;;;1.19;52.02;98892.34;6210003;23;20016;-37
2022/02/28 01:55:11;;;;;;;13.70;8.17;;;0.70;61.20;;;1.17;51.63;98889.78;6236354;23;20026;-37
2022/02/28 01:57:40;;;;;;;11.20;8.60;;;0.70;61.40;;;1.14;52.16;98882.06;6208728;23;20024;-37
2022/02/28 02:00:24;;;;;;;11.13;8.33;;;0.70;61.70;;;1.15;51.81;98888.16;6209179;23;20028;-37
2022/02/28 02:02:52;;;;;;;12.60;8.33;;;0.70;61.70;;;1.12;51.38;98896.16;6209129;23;20082;-37
2022/02/28 02:05:21;;;;;;;10.30;7.97;;;0.60;61.40;;;1.06;51.81;98884.19;6207813;23;20034;-38
2022/02/28 02:07:50;;;;;;;11.30;7.37;;;0.60;62.20;;;1.04;51.88;98893.06;6236095;23;20016;-37
2022/02/28 02:10:17;;;;;;;9.40;6.13;;;0.50;62.20;;;1.02;51.98;98900.16;6234683;23;20221;-37
2022/02/28 02:12:46;;;;;;;11.10;6.67;;;0.50;62.50;;;1.04;52.12;98903.53;6236358;23;20321;-37
2022/02/28 02:15:17;;;;;;;8.97;6.40;;;0.50;62.00;;;1.04;52.45;98901.75;6207625;23;20031;-37
2022/02/28 02:17:45;;;;;;;11.80;6.40;;;0.60;62.20;;;1.05;52.38;98898.22;6234715;23;20030;-37
2022/02/28 02:20:19;;;;;;;14.60;7.47;;;0.60;62.00;;;0.98;52.19;98900.28;6234930;23;20026;-37
2022/02/28 02:23:02;;;;;;;10.48;6.53;;;0.50;62.30;;;0.94;52.82;98897.88;6235717;23;20323;-37
2022/02/28 02:25:30;;;;;;;11.63;6.83;;;0.40;62.70;;;0.92;52.33;98897.94;6245573;23;20016;-37
2022/02/28 02:27:58;;;;;;;11.83;5.97;;;0.40;62.80;;;0.94;52.47;98900.50;6207785;23;20026;-36
2022/02/28 02:30:28;;;;;;;9.83;6.13;;;0.40;62.80;;;0.93;52.24;98904.03;6208814;23;20016;-36
2022/02/28 02:32:58;;;;;;;10.10;6.50;;;0.40;62.30;;;0.89;52.08;98894.59;6209759;23;20144;-36
2022/02/28 02:35:27;;;;;;;10.23;6.13;;;0.40;62.80;;;0.89;52.57;98891.97;6234290;23;20012;-37
2022/02/28 02:37:55;;;;;;;10.67;7.27;;;0.40;62.60;;;0.89;52.37;98891.97;6207463;23;20031;-36
2022/02/28 02:40:23;;;;;;;10.23;5.97;;;0.40;62.60;;;0.90;52.58;98898.94;6208491;23;20035;-36
2022/02/28 02:42:52;;;;;;;11.73;6.80;;;0.40;62.10;;;0.85;52.10;98899.13;6235173;23;20356;-36
2022/02/28 02:45:20;;;;;;;9.03;6.23;;;0.40;62.20;;;0.84;52.14;98894.81;6209086;23;20027;-36
2022/02/28 02:47:48;;;;;;;10.40;6.87;;;0.40;62.00;;;0.82;52.78;98891.41;6208640;23;20028;-36
2022/02/28 02:50:17;;;;;;;10.77;7.20;;;0.30;62.30;;;0.83;52.81;98892.25;6207426;23;20024;-36
2022/02/28 02:52:45;;;;;;;12.00;6.93;;;0.30;62.50;;;0.79;52.50;98891.53;6235786;23;20020;-37
2022/02/28 02:55:14;;;;;;;10.30;5.83;;;0.30;62.30;;;0.77;52.92;98896.84;6236248;23;20022;-36
2022/02/28 02:57:41;;;;;;;8.07;6.13;;;0.30;62.60;;;0.74;52.61;98888.31;6182868;23;20213;-36
2022/02/28 03:00:10;;;;;;;10.27;6.00;;;0.30;62.60;;;0.75;52.60;98889.97;6206546;23;20332;-36
2022/02/28 03:02:57;;;;;;;9.87;5.40;;;0.30;62.60;;;0.73;52.95;98890.03;6244809;23;20031;-36
2022/02/28 03:05:25;;;;;;;11.03;5.93;;;0.30;62.60;;;0.72;52.20;98880.50;6207769;23;20020;-36
2022/02/28 03:07:53;;;;;;;11.87;6.97;;;0.20;62.00;;;0.72;52.68;98887.53;6208820;23;20024;-36
2022/02/28 03:10:23;;;;;;;13.17;7.83;;;0.20;62.20;;;0.65;52.70;98876.44;6206372;23;20024;-36
2022/02/28 03:12:52;;;;;;;11.30;7.27;;;0.10;62.70;;;0.58;52.63;98878.50;6208543;23;20016;-36
2022/02/28 03:15:21;;;;;;;11.33;7.50;;;0.10;63.50;;;0.53;53.11;98885.72;6237783;23;20020;-36
2022/02/28 03:17:48;;;;;;;11.87;6.90;;;0.00;63.80;;;0.52;53.70;98883.16;6210927;23;20016;-36
2022/02/28 03:20:16;;;;;;;8.80;6.10;;;0.00;64.10;;;0.54;52.96;98889.16;6209931;23;20026;-37
2022/02/28 03:22:44;;;;;;;13.53;7.40;;;0.10;64.00;;;0.50;53.43;98888.44;6210369;23;20042;-36
2022/02/28 03:25:15;;;;;;;9.30;6.57;;;0.00;63.50;;;0.52;53.72;98893.63;6209851;23;20028;-36
2022/02/28 03:27:49;;;;;;;10.67;6.43;;;0.10;63.90;;;0.53;53.10;98909.28;6210401;23;20028;-36
2022/02/28 03:30:17;;;;;;;11.27;6.63;;;0.00;63.70;;;0.52;53.63;98899.72;6209553;23;20023;-37
2022/02/28 03:32:45;;;;;;;11.27;6.63;;;0.10;63.30;;;0.53;52.80;98896.19;6209860;23;20606;-36
2022/02/28 03:35:14;;;;;;;11.40;5.93;;;0.10;63.60;;;0.52;53.48;98902.34;6211042;23;20209;-36
2022/02/28 03:37:43;;;;;;;10.87;6.10;;;0.10;63.20;;;0.53;53.20;98897.97;6211304;23;20443;-36
2022/02/28 03:40:12;;;;;;;10.97;6.83;;;0.10;63.20;;;0.49;53.47;98899.88;6211109;23;20035;-36
2022/02/28 03:42:40;;;;;;;12.03;6.70;;;0.10;63.00;;;0.47;52.97;98890.38;6236531;23;20020;-36
2022/02/28 03:45:09;;;;;;;11.27;7.30;;;0.00;63.50;;;0.47;53.19;98882.53;6209374;23;20026;-36
2022/02/28 03:47:38;;;;;;;10.83;6.90;;;0.00;63.40;;;0.46;53.35;98886.03;6211736;23;20024;-36
2022/02/28 03:50:29;;;;;;;12.07;7.23;;;0.00;63.40;;;0.45;53.33;98881.75;6225332;23;20020;-36
2022/02/28 03:52:57;;;;;;;10.50;7.60;;;0.00;63.20;;;0.42;52.82;98877.47;6237736;23;20304;-36
2022/02/28 03:55:27;;;;;;;13.60;8.60;;;-0.10;63.80;;;0.39;53.62;98885.47;6185863;23;20794;-36
2022/02/28 03:57:56;;;;;;;10.07;7.73;;;-0.10;63.80;;;0.36;53.56;98875.13;6210157;23;20016;-36
2022/02/28 04:00:29;;;;;;;12.10;7.20;;;-0.10;64.20;;;0.39;53.28;98872.38;6209644;23;20035;-36
2022/02/28 04:02:57;;;;;;;12.03;7.23;;;-0.10;64.20;;;0.41;53.16;98878.41;6209592;23;20020;-36
2022/02/28 04:05:26;;;;;;;15.33;7.53;;;-0.10;63.80;;;0.42;53.10;98880.09;6206797;23;20019;-36
2022/02/28 04:07:59;;;;;;;10.10;6.88;;;-0.10;64.00;;;0.44;53.12;98880.03;6211352;23;20028;-36
2022/02/28 04:10:27;;;;;;;12.37;6.63;;;0.00;63.70;;;0.43;52.88;98878.31;6211013;23;20023;-37
2022/02/28 04:12:55;;;;;;;14.40;7.23;;;0.00;63.60;;;0.40;53.56;98874.06;6210432;23;20050;-36
2022/02/28 04:15:23;;;;;;;11.20;6.33;;;-0.10;63.60;;;0.41;52.94;98872.28;6209381;23;20023;-36
2022/02/28 04:17:52;;;;;;;13.77;7.97;;;0.00;64.00;;;0.39;53.74;98880.25;6210405;23;20306;-36
2022/02/28 04:20:43;;;;;;;10.20;6.90;;;-0.10;63.70;;;0.35;53.58;98874.28;6202412;23;20032;-36
2022/02/28 04:23:11;;;;;;;12.43;7.50;;;-0.10;64.40;;;0.34;53.08;98867.31;6209661;23;20020;-36
2022/02/28 04:25:39;;;;;;;7.60;5.43;;;-0.10;64.30;;;0.35;54.01;98870.78;6208763;23;20028;-36
2022/02/28 04:28:07;;;;;;;12.83;7.30;;;-0.10;64.20;;;0.36;53.91;98869.88;6208214;23;20027;-36
2022/02/28 04:30:35;;;;;;;11.70;6.57;;;-0.10;65.00;;;0.39;53.75;98872.38;6209110;23;20027;-36
2022/02/28 04:33:03;;;;;;;10.10;6.33;;;-0.10;63.80;;;0.42;53.04;98868.75;6210675;23;20019;-36
2022/02/28 04:35:32;;;;;;;10.00;6.27;;;0.00;63.60;;;0.41;53.55;98870.53;6209365;23;20016;-36
2022/02/28 04:38:05;;;;;;;11.90;6.93;;;0.00;64.10;;;0.43;53.70;98870.44;6209813;23;20031;-36
2022/02/28 04:40:34;;;;;;;11.37;6.40;;;0.00;64.20;;;0.41;53.40;98870.53;6209168;23;20340;-36
2022/02/28 04:43:04;;;;;;;12.60;6.70;;;0.00;64.30;;;0.40;53.75;98868.81;6207611;23;20020;-36
2022/02/28 04:45:34;;;;;;;11.03;6.67;;;-0.10;63.80;;;0.39;53.12;98869.75;6183952;23;20026;-36
2022/02/28 04:48:02;;;;;;;10.03;6.00;;;0.00;64.00;;;0.39;53.24;98877.63;6208612;23;20027;-36
2022/02/28 04:51:00;;;;;;;11.03;5.90;;;-0.10;64.10;;;0.35;53.86;98884.75;6235448;23;20024;-37
2022/02/28 04:53:28;;;;;;;12.00;7.63;;;-0.10;64.40;;;0.28;54.43;98885.09;6209598;23;20024;-36
2022/02/28 04:55:58;;;;;;;12.47;7.30;;;-0.20;64.30;;;0.15;54.50;98890.00;6208544;23;20030;-36
2022/02/28 04:58:27;;;;;;;9.33;6.87;;;-0.30;65.60;;;0.09;54.11;98891.09;6209880;23;20453;-36
2022/02/28 05:01:03;;;;;;;10.23;7.13;;;-0.40;65.50;;;0.04;54.28;98893.09;6247446;23;20030;-36
2022/02/28 05:03:32;;;;;;;10.43;7.37;;;-0.40;66.90;;;0.07;54.61;98897.31;6211019;23;20213;-37
2022/02/28 05:06:00;;;;;;;12.60;7.50;;;-0.40;66.10;;;0.06;54.70;98896.47;6208370;23;20024;-37
2022/02/28 05:08:29;;;;;;;12.07;7.47;;;-0.40;66.20;;;0.08;55.07;98907.75;6209220;23;20224;-37
2022/02/28 05:10:57;;;;;;;13.00;7.10;;;-0.40;66.90;;;0.07;54.45;98908.66;6209912;23;20024;-37
2022/02/28 05:13:25;;;;;;;10.30;6.23;;;-0.30;66.90;;;0.13;55.31;98907.53;6209780;23;20024;-37
2022/02/28 05:15:53;;;;;;;12.77;7.60;;;-0.30;66.80;;;0.13;55.36;98907.53;6183002;23;20024;-37
2022/02/28 05:18:22;;;;;;;14.90;6.93;;;-0.30;67.00;;;0.11;55.43;98917.22;6210748;23;20325;-38
2022/02/28 05:20:50;;;;;;;11.47;6.80;;;-0.40;66.70;;;0.10;55.41;98903.28;6208299;23;20315;-37
2022/02/28 05:23:19;;;;;;;10.53;5.97;;;-0.30;66.80;;;0.09;55.31;98906.81;6206793;23;20345;-37
2022/02/28 05:25:49;;;;;;;15.00;7.30;;;-0.40;66.30;;;0.07;54.62;98905.19;6208013;23;20028;-37
2022/02/28 05:28:37;;;;;;;11.80;6.73;;;-0.40;67.10;;;0.04;54.81;98900.94;6245722;23;20095;-37
2022/02/28 05:31:05;;;;;;;12.57;7.27;;;-0.40;66.60;;;-0.01;54.77;98908.97;6209841;23;20024;-37
2022/02/28 05:33:35;;;;;;;11.63;6.97;;;-0.50;66.70;;;-0.01;55.17;98903.72;6208132;23;20016;-37
2022/02/28 05:36:05;;;;;;;13.77;7.70;;;-0.50;67.00;;;0.02;55.25;98904.50;6208700;23;20016;-37
2022/02/28 05:38:46;;;;;;;9.63;6.33;;;-0.40;66.60;;;0.02;54.45;98909.75;6208746;23;20201;-37
2022/02/28 05:41:18;;;;;;;14.17;7.00;;;-0.40;66.20;;;0.02;54.49;98908.00;6207925;23;20344;-37
2022/02/28 05:43:52;;;;;;;10.73;6.97;;;-0.40;65.80;;;0.02;54.50;98907.13;6209834;23;20026;-37
2022/02/28 05:46:20;;;;;;;11.60;6.53;;;-0.40;65.90;;;0.03;54.88;98906.22;6209122;23;20648;-37
2022/02/28 05:49:12;;;;;;;12.83;6.33;;;-0.40;65.50;;;0.03;55.13;98909.69;6209051;23;20352;-37
2022/02/28 05:51:40;;;;;;;11.33;6.43;;;-0.40;65.40;;;0.04;54.62;98906.19;6209932;23;20039;-38
2022/02/28 05:54:10;;;;;;;13.20;7.37;;;-0.40;65.80;;;0.08;55.07;98905.13;6235929;23;20019;-37
2022/02/28 05:56:37;;;;;;;13.23;7.97;;;-0.30;66.10;;;0.13;55.20;98912.78;6236073;23;20012;-37
2022/02/28 05:59:05;;;;;;;14.03;8.37;;;-0.30;66.00;;;0.19;54.79;98915.13;6236282;23;20020;-37
2022/02/28 06:01:33;;;;;;;11.53;6.90;;;-0.20;65.40;;;0.24;54.63;98921.03;6235450;23;20028;-37
2022/02/28 06:04:01;;;;;;;14.50;7.53;;;-0.10;65.50;;;0.29;55.00;98924.31;6234096;23;20030;-37
2022/02/28 06:06:30;;;;;;;11.83;7.00;;;-0.10;65.40;;;0.31;54.53;98919.88;6236341;23;20035;-37
2022/02/28 06:08:57;;;;;;;13.57;7.37;;;-0.10;65.70;;;0.32;54.54;98923.31;6235433;23;20024;-37
2022/02/28 06:11:27;;;;;;;12.80;6.80;;;-0.10;65.80;;;0.33;54.46;98925.00;6235092;23;20020;-37
2022/02/28 06:13:55;;;;;;;9.87;6.63;;;-0.10;65.70;;;0.34;55.16;98927.56;6234986;23;20344;-37
2022/02/28 06:16:23;;;;;;;10.53;6.57;;;-0.10;66.00;;;0.34;55.35;98930.19;6235592;23;20020;-37
2022/02/28 06:18:51;;;;;;;15.33;7.10;;;-0.10;66.20;;;0.34;55.61;98935.44;6236492;23;20020;-36
2022/02/28 06:21:19;;;;;;;14.33;7.53;;;-0.20;66.30;;;0.32;54.90;98933.81;6235378;23;20038;-36
2022/02/28 06:23:47;;;;;;;11.53;6.57;;;-0.20;66.30;;;0.32;55.59;98936.44;6233067;23;20024;-37
2022/02/28 06:26:15;;;;;;;12.27;6.90;;;-0.20;66.30;;;0.30;54.77;98938.25;6234507;23;20016;-37
2022/02/28 06:28:43;;;;;;;11.33;6.57;;;-0.20;66.50;;;0.31;55.35;98932.09;6210024;23;20024;-37
2022/02/28 06:31:11;;;;;;;10.23;6.90;;;-0.20;66.30;;;0.35;55.56;98931.91;6208509;23;20016;-37
2022/02/28 06:33:40;;;;;;;14.00;7.23;;;-0.20;65.90;;;0.37;55.15;98931.84;6235258;23;20066;-37
2022/02/28 06:36:08;;;;;;;14.83;8.53;;;-0.10;66.00;;;0.40;55.64;98926.47;6234836;23;20012;-37
2022/02/28 06:38:37;;;;;;;12.90;7.60;;;0.00;65.70;;;0.45;54.96;98934.16;6233582;23;20016;-39
2022/02/28 06:41:05;;;;;;;10.93;7.20;;;0.00;65.50;;;0.47;55.36;98927.91;6235612;23;20241;-38
2022/02/28 06:43:32;;;;;;;13.17;8.63;;;0.00;65.30;;;0.52;54.71;98941.63;6235990;23;20215;-39
2022/02/28 06:46:00;;;;;;;11.53;8.43;;;0.10;65.10;;;0.58;54.49;98945.78;6235570;23;20703;-38
2022/02/28 06:48:28;;;;;;;18.63;10.23;;;0.20;65.10;;;0.61;55.38;98942.19;6235472;23;20016;-38
2022/02/28 06:50:56;;;;;;;18.70;11.67;;;0.20;64.70;;;0.64;54.96;98955.13;6233833;23;20019;-40
2022/02/28 06:53:25;;;;;;;20.50;11.50;;;0.30;64.80;;;0.65;54.72;98954.22;6234749;23;20016;-39
2022/02/28 06:55:54;;;;;;;15.93;10.53;;;0.30;64.30;;;0.65;54.98;98954.22;6234673;23;20024;-38
2022/02/28 06:58:21;;;;;;;15.47;8.17;;;0.20;64.30;;;0.66;54.62;98953.28;6234474;23;20202;-40
2022/02/28 07:00:53;;;;;;;15.67;7.63;;;0.30;64.70;;;0.69;55.11;98951.41;6235775;23;20012;-39
2022/02/28 07:03:53;;;;;;;10.93;6.87;;;0.30;64.30;;;0.73;54.22;98947.72;6206935;23;20191;-39
2022/02/28 07:06:22;;;;;;;10.30;6.33;;;0.40;64.40;;;0.75;54.59;98952.91;6233531;23;20020;-39
2022/02/28 07:08:51;;;;;;;13.60;7.93;;;0.40;64.60;;;0.76;54.99;98952.84;6235366;23;20012;-39
2022/02/28 07:11:19;;;;;;;10.10;6.17;;;0.40;64.60;;;0.78;54.49;98952.78;6210020;23;20020;-40
2022/02/28 07:13:48;;;;;;;11.10;7.07;;;0.40;64.70;;;0.83;54.40;98952.56;6234485;23;20020;-39
2022/02/28 07:16:16;;;;;;;16.60;7.93;;;0.40;64.30;;;0.85;54.73;98954.19;6208750;23;20075;-38
2022/02/28 07:18:44;;;;;;;12.70;8.00;;;0.50;65.20;;;0.87;54.75;98960.22;6207512;23;20024;-39
2022/02/28 07:21:12;;;;;;;18.93;9.77;;;0.50;64.80;;;0.89;54.49;98955.78;6235288;23;20016;-39
2022/02/28 07:23:41;;;;;;;15.47;8.40;;;0.50;65.00;;;0.91;54.56;98953.94;6233785;23;20024;-39
2022/02/28 07:26:08;;;;;;;13.70;8.40;;;0.50;65.00;;;0.93;55.28;98951.22;6235225;23;20581;-38
2022/02/28 07:28:37;;;;;;;11.03;7.60;;;0.60;64.90;;;0.96;54.95;98948.47;6233602;23;20016;-39
2022/02/28 07:31:24;;;;;;;13.63;7.87;;;0.60;64.90;;;1.00;55.01;98949.19;6245579;23;20387;-40
2022/02/28 07:33:52;;;;;;;17.53;9.23;;;0.60;65.10;;;1.01;55.30;98953.50;6234485;23;20449;-39
2022/02/28 07:36:20;;;;;;;16.53;10.00;;;0.70;65.30;;;1.05;55.28;98955.06;6235135;23;20027;-39
2022/02/28 07:38:48;;;;;;;17.30;9.67;;;0.70;65.50;;;1.07;55.10;98959.34;6233282;23;20016;-39
2022/02/28 07:41:18;;;;;;;15.50;8.87;;;0.70;65.70;;;1.11;54.71;98966.16;6234433;23;20016;-38
2022/02/28 07:43:45;;;;;;;15.37;9.10;;;0.80;65.50;;;1.15;54.82;98965.06;6234040;23;20026;-38
2022/02/28 07:46:13;;;;;;;13.40;8.00;;;0.80;65.30;;;1.17;54.73;98958.00;6233902;23;20024;-39
2022/02/28 07:48:47;;;;;;;14.98;8.00;;;0.80;65.20;;;1.21;55.51;98960.47;6232305;23;20024;-39
2022/02/28 07:51:16;;;;;;;11.90;7.80;;;0.90;65.10;;;1.24;55.63;98963.81;6233557;23;20020;-39
2022/02/28 07:53:44;;;;;;;15.90;8.70;;;0.90;65.00;;;1.25;54.87;98957.63;6234547;23;20012;-38
2022/02/28 07:56:12;;;;;;;14.30;8.43;;;0.90;65.30;;;1.28;55.68;98968.00;6233336;23;20155;-39
2022/02/28 07:58:40;;;;;;;14.40;8.20;;;0.90;64.90;;;1.31;55.10;98973.09;6233704;23;20019;-38
2022/02/28 08:01:07;;;;;;;12.20;7.40;;;1.00;64.80;;;1.37;55.03;98977.22;6234843;23;20012;-38
2022/02/28 08:03:36;;;;;;;15.53;7.80;;;1.10;64.80;;;1.42;54.71;98977.84;6237100;23;20016;-38
2022/02/28 08:06:03;;;;;;;13.77;7.80;;;1.10;64.80;;;1.45;55.46;98982.94;6236036;23;20016;-38
2022/02/28 08:08:31;;;;;;;17.27;9.03;;;1.20;64.70;;;1.49;55.45;98981.91;6236956;23;20222;-37
2022/02/28 08:10:59;;;;;;;16.33;8.37;;;1.20;64.90;;;1.52;55.34;98978.28;6237082;23;20024;-38
2022/02/28 08:13:27;;;;;;;12.10;7.13;;;1.20;64.90;;;1.54;55.45;98976.44;6210929;23;20362;-38
2022/02/28 08:15:57;;;;;;;13.20;8.33;;;1.20;65.10;;;1.55;55.47;98981.63;6236465;23;20225;-38
2022/02/28 08:18:25;;;;;;;13.17;8.03;;;1.20;65.20;;;1.58;54.94;98976.19;6235083;23;20024;-38
2022/02/28 08:20:53;;;;;;;12.30;7.83;;;1.30;65.20;;;1.62;55.56;98982.16;6201803;23;20030;-38
2022/02/28 08:23:21;;;;;;;14.47;7.67;;;1.30;65.20;;;1.65;55.01;98982.03;6254932;23;20226;-38
2022/02/28 08:25:50;;;;;;;15.00;8.93;;;1.30;65.20;;;1.69;55.33;98991.47;6222569;23;20020;-38
2022/02/28 08:28:19;;;;;;;12.50;7.80;;;1.40;65.10;;;1.72;54.93;98995.72;6248440;23;20020;-38
2022/02/28 08:30:47;;;;;;;14.47;8.63;;;1.40;65.10;;;1.75;55.04;98992.94;6244739;23;20022;-38
2022/02/28 08:33:15;;;;;;;12.73;8.10;;;1.40;65.10;;;1.79;54.82;98999.75;6258412;23;20318;-38
2022/02/28 08:35:43;;;;;;;15.03;8.30;;;1.50;65.30;;;1.83;55.43;99001.31;6246391;23;20015;-37
2022/02/28 08:38:11;;;;;;;14.97;8.53;;;1.50;65.20;;;1.87;55.03;99005.47;6249095;23;20026;-38
2022/02/28 08:40:39;;;;;;;15.03;8.93;;;1.60;64.80;;;1.88;55.47;98999.31;6244349;23;20012;-38
2022/02/28 08:43:07;;;;;;;14.40;8.77;;;1.60;64.90;;;1.94;55.44;98999.03;6247026;23;20028;-38
2022/02/28 08:45:34;;;;;;;13.67;8.90;;;1.70;64.90;;;1.99;55.21;98987.44;6248960;23;20024;-38
2022/02/28 08:48:03;;;;;;;16.73;9.17;;;1.70;64.20;;;2.05;55.10;98995.00;6247502;23;20016;-38
2022/02/28 08:50:31;;;;;;;12.37;8.10;;;1.80;64.30;;;2.09;55.20;98993.94;6247502;23;20024;-37
2022/02/28 08:52:59;;;;;;;14.70;9.93;;;1.90;64.30;;;2.14;55.01;98998.03;6246347;23;20027;-38
2022/02/28 08:55:27;;;;;;;17.50;9.60;;;1.90;64.40;;;2.21;55.52;98997.72;6242437;23;20341;-38
2022/02/28 08:57:54;;;;;;;15.13;9.20;;;2.00;64.30;;;2.25;55.46;98999.28;6248101;23;20019;-38
2022/02/28 09:00:23;;;;;;;15.70;9.87;;;2.00;64.10;;;2.30;55.15;99002.53;6241704;23;20026;-38
2022/02/28 09:02:50;;;;;;;11.87;8.77;;;2.10;64.20;;;2.36;54.93;98991.72;6246020;23;20464;-38
2022/02/28 09:05:19;;;;;;;17.03;9.83;;;2.20;63.70;;;2.41;54.79;98996.75;6247411;23;20027;-38
2022/02/28 09:07:47;;;;;;;14.87;9.57;;;2.20;63.40;;;2.44;54.97;98993.97;6248988;23;20016;-38
2022/02/28 09:10:18;;;;;;;14.47;9.50;;;2.20;63.30;;;2.49;54.83;98990.19;6248719;23;20031;-39
2022/02/28 09:12:46;;;;;;;16.47;8.77;;;2.30;63.30;;;2.53;54.87;99002.25;6258158;23;20328;-38
2022/02/28 09:15:15;;;;;;;14.17;9.10;;;2.30;63.00;;;2.58;54.83;98999.41;6247567;23;20340;-38
2022/02/28 09:17:43;;;;;;;17.67;9.67;;;2.40;63.10;;;2.64;54.40;99006.13;6241227;23;20019;-38
2022/02/28 09:20:11;;;;;;;17.13;9.57;;;2.40;62.90;;;2.69;54.53;98998.81;6241202;23;20020;-38
2022/02/28 09:22:40;;;;;;;13.70;9.43;;;2.50;62.80;;;2.74;54.57;99004.72;6247125;23;20036;-38
2022/02/28 09:25:09;;;;;;;14.40;8.67;;;2.50;63.20;;;2.78;54.46;99003.63;6258010;23;20030;-37
2022/02/28 09:27:39;;;;;;;15.17;9.17;;;2.60;62.00;;;2.83;54.24;98991.09;6247591;23;20022;-37
2022/02/28 09:30:19;;;;;;;13.73;9.33;;;2.60;61.80;;;2.87;53.96;98992.63;6252283;23;20032;-37
2022/02/28 09:32:54;;;;;;;15.77;9.67;;;2.70;62.00;;;2.90;54.06;98987.19;6215733;23;20024;-37
2022/02/28 09:35:27;;;;;;;14.67;9.17;;;2.70;61.20;;;2.98;53.88;98985.94;6218407;23;20167;-38
2022/02/28 09:38:07;;;;;;;15.00;8.23;;;2.80;61.00;;;3.01;52.77;98991.91;6213102;23;20022;-37
2022/02/28 09:40:35;;;;;;;13.50;8.50;;;2.90;60.30;;;3.07;53.54;98986.31;6241398;23;20027;-37
2022/02/28 09:43:23;;;;;;;12.93;9.07;;;2.90;60.40;;;3.14;53.54;98986.81;6217494;23;20020;-37
2022/02/28 09:46:24;;;;;;;13.07;8.27;;;3.00;60.30;;;3.21;53.57;98985.56;6209171;23;20327;-38
2022/02/28 09:49:22;;;;;;;14.50;8.70;;;3.00;60.10;;;3.29;53.22;98993.06;6256974;23;20022;-38
2022/02/28 09:52:08;;;;;;;14.63;8.07;;;3.10;60.00;;;3.34;52.58;99002.41;6253605;23;20030;-38
2022/02/28 09:55:03;;;;;;;12.57;8.37;;;3.20;59.00;;;3.39;52.57;99002.16;6240908;23;20020;-38
2022/02/28 09:57:50;;;;;;;16.13;8.60;;;3.20;58.80;;;3.46;52.80;98997.44;6251218;23;20257;-38
2022/02/28 10:00:43;;;;;;;15.90;7.63;;;3.30;58.10;;;3.52;52.29;98997.09;6208692;23;20024;-38
2022/02/28 10:03:12;;;;;;;13.63;7.77;;;3.40;58.10;;;3.55;52.28;98997.78;6211522;23;20112;-38
2022/02/28 10:05:40;;;;;;;12.17;7.90;;;3.40;58.00;;;3.62;52.32;99000.06;6207917;23;20028;-38
2022/02/28 10:08:14;;;;;;;13.63;8.20;;;3.50;58.00;;;3.68;51.97;98994.44;6236728;23;20416;-38
2022/02/28 10:10:47;;;;;;;14.55;8.50;;;3.60;57.40;;;3.73;52.24;99005.59;6235351;23;20206;-38
2022/02/28 10:13:24;;;;;;;14.20;8.13;;;3.60;57.70;;;3.79;50.92;99002.63;6245514;23;20196;-38
2022/02/28 10:15:58;;;;;;;15.00;9.03;;;3.70;57.10;;;3.86;51.51;99011.88;6212697;23;20022;-38
2022/02/28 10:18:26;;;;;;;11.43;8.30;;;3.80;57.30;;;3.89;51.17;99005.59;6234797;23;20016;-38
2022/02/28 10:20:55;;;;;;;14.90;8.33;;;3.80;57.10;;;3.91;51.54;99003.72;6234317;23;20012;-38
2022/02/28 10:23:24;;;;;;;15.80;8.60;;;3.80;56.10;;;3.96;51.01;99008.75;6231125;23;20038;-37
2022/02/28 10:26:12;;;;;;;15.00;7.90;;;3.80;56.80;;;4.00;50.78;98999.72;6189376;23;20319;-37
2022/02/28 10:29:17;;;;;;;16.97;8.87;;;3.80;56.30;;;4.06;51.15;99004.63;6215343;23;20024;-37
2022/02/28 10:32:11;;;;;;;11.40;6.67;;;3.90;56.40;;;4.12;50.76;98996.38;6220534;23;20031;-37
2022/02/28 10:38:24;;;;;;;15.13;7.93;;;4.10;56.70;;;4.26;51.01;98991.16;6232876;23;20425;-37
2022/02/28 10:40:52;;;;;;;14.50;8.50;;;4.20;56.40;;;4.32;51.24;98993.47;6236259;23;20018;-37
2022/02/28 10:43:34;;;;;;;13.73;8.73;;;4.20;56.60;;;4.36;50.04;98988.00;6233936;23;20019;-37